TimeMST,TemperatureF,Dew PointF,Humidity,Sea Level PressureIn,VisibilityMPH,Wind Direction,Wind SpeedMPH,Gust SpeedMPH,PrecipitationIn,Events,Conditions,WindDirDegrees,DateUTC
12:15 AM,23.5,18.9,82,29.96,10.0,WSW,3.5,-,N/A,,Mostly Cloudy,240,2013-12-30 07:15:00
12:35 AM,23.0,18.9,84,29.94,10.0,Calm,Calm,-,N/A,,Mostly Cloudy,0,2013-12-30 07:35:00
12:55 AM,22.8,18.9,85,29.95,10.0,West,3.5,-,N/A,,Mostly Cloudy,280,2013-12-30 07:55:00
1:15 AM,22.8,18.7,84,29.95,10.0,West,3.5,-,N/A,,Scattered Clouds,270,2013-12-30 08:15:00
1:35 AM,21.7,18.0,85,29.96,10.0,West,4.6,-,N/A,,Clear,270,2013-12-30 08:35:00
1:55 AM,19.9,16.2,85,29.97,10.0,West,5.8,-,N/A,,Scattered Clouds,280,2013-12-30 08:55:00
2:15 AM,18.9,16.0,89,29.98,10.0,WSW,5.8,-,N/A,,Clear,250,2013-12-30 09:15:00
2:35 AM,18.5,15.8,89,30.00,10.0,West,8.1,-,N/A,,Scattered Clouds,260,2013-12-30 09:35:00
2:55 AM,17.8,14.7,88,29.99,10.0,West,8.1,-,N/A,,Scattered Clouds,270,2013-12-30 09:55:00
3:15 AM,19.0,16.2,89,30.00,10.0,WNW,9.2,-,N/A,,Clear,290,2013-12-30 10:15:00
3:35 AM,20.3,16.7,86,30.00,10.0,WNW,9.2,-,N/A,,Clear,290,2013-12-30 10:35:00
3:55 AM,20.3,16.5,85,30.01,10.0,West,8.1,-,N/A,,Clear,280,2013-12-30 10:55:00
4:15 AM,19.9,16.7,87,30.01,10.0,WNW,6.9,-,N/A,,Clear,290,2013-12-30 11:15:00
4:35 AM,18.1,15.4,89,30.02,10.0,West,6.9,-,N/A,,Clear,270,2013-12-30 11:35:00
4:55 AM,17.4,15.1,91,30.03,10.0,WNW,6.9,-,N/A,,Clear,300,2013-12-30 11:55:00
5:15 AM,18.1,15.8,91,30.03,10.0,West,9.2,-,N/A,,Clear,280,2013-12-30 12:15:00
5:35 AM,18.1,15.6,90,30.05,10.0,West,9.2,-,N/A,,Clear,270,2013-12-30 12:35:00
5:55 AM,18.5,15.8,89,30.06,10.0,WNW,9.2,-,N/A,,Scattered Clouds,300,2013-12-30 12:55:00
6:15 AM,18.7,15.8,89,30.07,10.0,WNW,8.1,-,N/A,,Scattered Clouds,300,2013-12-30 13:15:00
6:35 AM,19.2,15.1,84,30.08,10.0,WNW,6.9,-,N/A,,Clear,300,2013-12-30 13:35:00
6:55 AM,21.4,15.1,77,30.09,10.0,West,5.8,-,N/A,,Clear,280,2013-12-30 13:55:00
7:15 AM,20.1,15.4,82,30.10,10.0,West,5.8,-,N/A,,Clear,270,2013-12-30 14:15:00
7:35 AM,19.0,14.9,84,30.11,10.0,WNW,8.1,-,N/A,,Clear,290,2013-12-30 14:35:00
7:55 AM,22.8,16.9,78,30.13,10.0,NW,11.5,-,N/A,,Clear,310,2013-12-30 14:55:00
8:15 AM,29.5,19.4,66,30.13,10.0,NNW,11.5,-,N/A,,Clear,330,2013-12-30 15:15:00
8:35 AM,32.7,19.0,57,30.15,10.0,NW,12.7,-,N/A,,Clear,320,2013-12-30 15:35:00
8:55 AM,34.2,18.5,53,30.16,10.0,NW,12.7,-,N/A,,Clear,320,2013-12-30 15:55:00
9:15 AM,36.7,17.8,46,30.17,10.0,NW,16.1,23.0,N/A,,Clear,320,2013-12-30 16:15:00
9:35 AM,38.1,17.2,43,30.17,10.0,NNW,15.0,18.4,N/A,,Clear,330,2013-12-30 16:35:00
9:55 AM,39.7,16.9,40,30.18,10.0,NW,12.7,-,N/A,,Clear,320,2013-12-30 16:55:00
10:15 AM,41.4,16.0,36,30.19,10.0,NW,15.0,19.6,N/A,,Clear,310,2013-12-30 17:15:00
10:35 AM,42.8,15.4,33,30.18,10.0,NW,13.8,-,N/A,,Clear,310,2013-12-30 17:35:00
10:55 AM,44.1,15.6,32,30.18,10.0,NW,12.7,19.6,N/A,,Clear,310,2013-12-30 17:55:00
11:15 AM,45.7,15.1,29,30.17,10.0,WNW,16.1,23.0,N/A,,Clear,300,2013-12-30 18:15:00
11:35 AM,46.6,13.6,27,30.18,10.0,NNW,21.9,27.6,N/A,,Clear,330,2013-12-30 18:35:00
11:55 AM,46.8,13.6,26,30.18,10.0,NW,23.0,31.1,N/A,,Clear,320,2013-12-30 18:55:00
12:15 PM,46.6,14.0,27,30.17,10.0,North,17.3,28.8,N/A,,Clear,350,2013-12-30 19:15:00
12:35 PM,47.1,14.4,27,30.17,10.0,NNW,17.3,25.3,N/A,,Mostly Cloudy,340,2013-12-30 19:35:00
12:55 PM,46.6,14.2,27,30.16,10.0,NNW,16.1,23.0,N/A,,Scattered Clouds,340,2013-12-30 19:55:00
1:15 PM,47.3,13.8,26,30.16,10.0,NNW,15.0,21.9,N/A,,Clear,330,2013-12-30 20:15:00
1:55 PM,47.7,11.7,23,30.16,10.0,NNW,20.7,26.5,N/A,,Clear,330,2013-12-30 20:55:00
2:15 PM,47.1,11.3,24,30.16,10.0,NW,13.8,26.5,N/A,,Clear,320,2013-12-30 21:15:00
2:35 PM,46.8,12.0,25,30.15,10.0,NNW,12.7,23.0,N/A,,Clear,330,2013-12-30 21:35:00
2:55 PM,46.4,12.2,25,30.15,10.0,NNW,13.8,19.6,N/A,,Clear,330,2013-12-30 21:55:00
3:15 PM,46.2,12.4,26,30.15,10.0,NNW,8.1,-,N/A,,Clear,340,2013-12-30 22:15:00
3:35 PM,45.5,12.7,27,30.16,10.0,North,6.9,-,N/A,,Clear,350,2013-12-30 22:35:00
3:55 PM,43.7,12.6,28,30.16,10.0,North,6.9,-,N/A,,Clear,360,2013-12-30 22:55:00
4:15 PM,39.9,12.2,32,30.16,10.0,North,5.8,-,N/A,,Clear,360,2013-12-30 23:15:00
4:35 PM,37.2,11.8,35,30.15,10.0,NNE,6.9,-,N/A,,Clear,20,2013-12-30 23:35:00
4:55 PM,39.2,12.0,33,30.15,10.0,NE,4.6,-,N/A,,Clear,40,2013-12-30 23:55:00
5:15 PM,36.9,11.8,36,30.15,10.0,NE,5.8,-,N/A,,Clear,50,2013-12-31 00:15:00
5:35 PM,32.2,12.0,43,30.15,10.0,ENE,3.5,-,N/A,,Clear,70,2013-12-31 00:35:00
5:55 PM,34.3,12.6,41,30.16,10.0,East,3.5,-,N/A,,Clear,90,2013-12-31 00:55:00
6:15 PM,32.4,12.7,44,30.16,10.0,East,4.6,-,N/A,,Clear,90,2013-12-31 01:15:00
6:35 PM,31.3,12.6,46,30.16,10.0,ESE,5.8,-,N/A,,Clear,120,2013-12-31 01:35:00
6:55 PM,30.2,12.6,48,30.16,10.0,SSE,4.6,-,N/A,,Clear,150,2013-12-31 01:55:00
7:15 PM,31.8,12.7,45,30.17,10.0,South,3.5,-,N/A,,Clear,190,2013-12-31 02:15:00
7:35 PM,30.4,13.1,49,30.17,10.0,South,3.5,-,N/A,,Clear,180,2013-12-31 02:35:00
7:55 PM,30.2,14.0,51,30.17,10.0,Calm,Calm,-,N/A,,Clear,0,2013-12-31 02:55:00
8:15 PM,29.8,14.0,52,30.17,10.0,Calm,Calm,-,N/A,,Clear,0,2013-12-31 03:15:00
8:35 PM,29.1,14.0,53,30.15,10.0,Calm,Calm,-,N/A,,Clear,0,2013-12-31 03:35:00
8:55 PM,28.2,13.8,55,30.15,10.0,SW,3.5,-,N/A,,Clear,220,2013-12-31 03:55:00
9:15 PM,27.5,14.2,57,30.15,10.0,Calm,Calm,-,N/A,,Clear,0,2013-12-31 04:15:00
9:35 PM,24.4,13.6,64,30.14,10.0,South,5.8,-,N/A,,Clear,170,2013-12-31 04:35:00
9:55 PM,23.4,12.9,64,30.13,10.0,ENE,5.8,-,N/A,,Clear,70,2013-12-31 04:55:00
10:15 PM,19.6,12.9,75,30.13,10.0,NE,3.5,-,N/A,,Clear,50,2013-12-31 05:15:00
10:35 PM,21.6,13.6,72,30.13,10.0,ENE,4.6,-,N/A,,Clear,60,2013-12-31 05:35:00
10:55 PM,19.0,13.5,79,30.12,10.0,Calm,Calm,-,N/A,,Clear,0,2013-12-31 05:55:00
11:15 PM,22.5,15.8,76,30.11,10.0,Calm,Calm,-,N/A,,Clear,0,2013-12-31 06:15:00
11:35 PM,20.7,14.0,75,30.10,10.0,Calm,Calm,-,N/A,,Clear,0,2013-12-31 06:35:00
11:55 PM,20.8,14.5,77,30.09,10.0,Calm,Calm,-,N/A,,Clear,0,2013-12-31 06:55:00